createdAt,value
2018-09-26T00:02:18.166Z,8.20
2018-09-26T00:04:48.497Z,8.10
2018-09-26T00:07:18.642Z,8.10
2018-09-26T00:09:47.892Z,8.10
2018-09-26T00:12:20.883Z,8.10
2018-09-26T00:14:49.917Z,8.10
2018-09-26T00:17:19.909Z,8.10
2018-09-26T00:19:50.037Z,8.10
2018-09-26T00:22:23.886Z,8.00
2018-09-26T00:24:53.546Z,8.00
2018-09-26T00:27:42.346Z,8.00
2018-09-26T00:30:11.927Z,7.90
2018-09-26T00:32:42.940Z,7.90
2018-09-26T00:35:19.135Z,7.90
2018-09-26T00:37:48.227Z,7.90
2018-09-26T00:40:17.401Z,7.90
2018-09-26T00:42:46.492Z,7.90
2018-09-26T00:45:15.610Z,8.00
2018-09-26T00:47:44.794Z,7.90
2018-09-26T00:50:13.854Z,7.90
2018-09-26T00:52:43.053Z,7.90
2018-09-26T00:55:14.358Z,7.90
2018-09-26T00:57:43.413Z,7.90
2018-09-26T01:00:18.629Z,7.90
2018-09-26T01:02:51.034Z,7.90
2018-09-26T01:05:22.734Z,7.80
2018-09-26T01:07:52.815Z,7.80
2018-09-26T01:10:22.357Z,7.80
2018-09-26T01:12:55.911Z,7.90
2018-09-26T01:15:25.915Z,7.80
2018-09-26T01:17:57.058Z,7.80
2018-09-26T01:20:27.820Z,7.90
2018-09-26T01:22:58.239Z,7.90
2018-09-26T01:25:28.798Z,7.90
2018-09-26T01:28:00.831Z,7.90
2018-09-26T01:30:31.976Z,7.90
2018-09-26T01:33:01.753Z,7.90
2018-09-26T01:35:30.886Z,7.90
2018-09-26T01:38:00.228Z,7.90
2018-09-26T01:40:34.795Z,7.90
2018-09-26T01:43:05.546Z,7.80
2018-09-26T01:45:34.670Z,7.80
2018-09-26T01:48:08.894Z,7.80
2018-09-26T01:50:38.073Z,7.70
2018-09-26T01:53:07.314Z,7.70
2018-09-26T01:55:37.483Z,7.60
2018-09-26T01:58:08.026Z,7.60
2018-09-26T02:03:11.194Z,7.50
2018-09-26T02:05:49.784Z,7.50
2018-09-26T02:08:19.009Z,7.50
2018-09-26T02:10:48.090Z,7.50
2018-09-26T02:13:17.925Z,7.40
2018-09-26T02:15:50.473Z,7.40
2018-09-26T02:18:19.840Z,7.30
2018-09-26T02:20:52.233Z,7.40
2018-09-26T02:23:24.015Z,7.40
2018-09-26T02:25:53.620Z,7.40
2018-09-26T02:28:22.785Z,7.40
2018-09-26T02:30:56.876Z,7.30
2018-09-26T02:33:26.098Z,7.30
2018-09-26T02:35:55.222Z,7.20
2018-09-26T02:38:25.969Z,7.20
2018-09-26T02:40:55.219Z,7.10
2018-09-26T02:43:24.462Z,7.00
2018-09-26T02:45:53.504Z,6.90
2018-09-26T02:48:27.627Z,6.80
2018-09-26T02:50:56.749Z,6.80
2018-09-26T02:53:27.704Z,6.70
2018-09-26T02:55:59.058Z,6.70
2018-09-26T02:58:28.209Z,6.60
2018-09-26T03:00:59.469Z,6.60
2018-09-26T03:03:30.686Z,6.60
2018-09-26T03:05:59.893Z,6.60
2018-09-26T03:08:31.756Z,6.60
2018-09-26T03:11:00.966Z,6.60
2018-09-26T03:13:30.429Z,6.60
2018-09-26T03:15:59.624Z,6.50
2018-09-26T03:18:28.686Z,6.50
2018-09-26T03:20:57.870Z,6.50
2018-09-26T03:23:27.081Z,6.50
2018-09-26T03:25:56.649Z,6.50
2018-09-26T03:28:25.815Z,6.50
2018-09-26T03:30:54.824Z,6.50
2018-09-26T03:33:24.534Z,6.60
2018-09-26T03:35:53.779Z,6.60
2018-09-26T03:38:22.844Z,6.50
2018-09-26T03:40:56.484Z,6.60
2018-09-26T03:43:25.642Z,6.50
2018-09-26T03:45:54.721Z,6.50
2018-09-26T03:48:24.926Z,6.40
2018-09-26T03:50:53.994Z,6.40
2018-09-26T03:53:25.055Z,6.40
2018-09-26T03:55:54.049Z,6.40
2018-09-26T03:58:24.807Z,6.40
2018-09-26T04:00:56.002Z,6.40
2018-09-26T04:03:25.025Z,6.40
2018-09-26T04:06:00.071Z,6.40
2018-09-26T04:08:29.473Z,6.40
2018-09-26T04:11:00.427Z,6.40
2018-09-26T04:13:30.638Z,6.40
2018-09-26T04:15:59.846Z,6.30
2018-09-26T04:18:29.479Z,6.30
2018-09-26T04:23:53.517Z,6.30
2018-09-26T04:26:22.723Z,6.20
2018-09-26T04:28:53.710Z,6.20
2018-09-26T04:31:22.835Z,6.10
2018-09-26T04:33:52.037Z,6.10
2018-09-26T04:36:21.138Z,6.10
2018-09-26T04:38:50.317Z,6.10
2018-09-26T04:41:19.466Z,6.10
2018-09-26T04:43:52.733Z,6.20
2018-09-26T04:46:21.851Z,6.20
2018-09-26T04:48:51.073Z,6.20
2018-09-26T04:51:20.080Z,6.20
2018-09-26T04:53:49.150Z,6.30
2018-09-26T04:56:19.373Z,6.20
2018-09-26T04:58:48.511Z,6.30
2018-09-26T05:01:18.066Z,6.30
2018-09-26T05:03:47.954Z,6.40
2018-09-26T05:06:19.402Z,6.40
2018-09-26T05:08:48.676Z,6.40
2018-09-26T05:11:18.641Z,6.40
2018-09-26T05:13:47.715Z,6.50
2018-09-26T05:16:18.719Z,6.50
2018-09-26T05:18:47.814Z,6.60
2018-09-26T05:21:18.502Z,6.60
2018-09-26T05:23:48.439Z,6.70
2018-09-26T05:26:17.494Z,6.70
2018-09-26T05:31:22.213Z,6.70
2018-09-26T05:33:51.249Z,6.70
2018-09-26T05:36:23.806Z,6.70
2018-09-26T05:38:53.052Z,6.70
2018-09-26T05:41:26.103Z,6.80
2018-09-26T05:43:56.731Z,6.80
2018-09-26T05:46:25.784Z,6.80
2018-09-26T05:48:56.770Z,6.90
2018-09-26T05:51:29.107Z,6.80
2018-09-26T05:53:59.925Z,6.90
2018-09-26T05:56:30.307Z,6.90
2018-09-26T05:59:01.643Z,7.00
2018-09-26T06:01:32.615Z,7.00
2018-09-26T06:06:36.011Z,7.00
2018-09-26T06:09:09.162Z,6.90
2018-09-26T06:11:38.237Z,6.90
2018-09-26T06:14:09.657Z,6.90
2018-09-26T06:16:39.616Z,6.80
2018-09-26T06:19:17.218Z,6.90
2018-09-26T06:21:48.835Z,6.90
2018-09-26T06:24:17.894Z,7.00
2018-09-26T06:26:48.386Z,7.10
2018-09-26T06:29:17.559Z,7.10
2018-09-26T06:31:47.297Z,7.20
2018-09-26T06:34:16.413Z,7.20
2018-09-26T06:36:45.536Z,7.30
2018-09-26T06:39:19.398Z,7.30
2018-09-26T06:41:48.430Z,7.30
2018-09-26T06:44:17.422Z,7.30
2018-09-26T06:46:48.774Z,7.40
2018-09-26T06:49:18.199Z,7.40
2018-09-26T06:51:47.423Z,7.40
2018-09-26T06:54:16.482Z,7.50
2018-09-26T06:56:49.176Z,7.50
2018-09-26T06:59:18.469Z,7.60
2018-09-26T07:01:47.686Z,7.70
2018-09-26T07:04:17.032Z,7.80
2018-09-26T07:06:49.427Z,7.90
2018-09-26T07:09:19.023Z,8.00
2018-09-26T07:11:50.148Z,8.10
2018-09-26T07:14:19.790Z,8.20
2018-09-26T07:16:54.807Z,8.30
2018-09-26T07:19:25.741Z,8.40
2018-09-26T07:25:09.737Z,8.50
2018-09-26T07:30:18.916Z,8.80
2018-09-26T07:32:54.556Z,8.90
2018-09-26T07:35:23.702Z,8.90
2018-09-26T07:37:56.450Z,9.00
2018-09-26T07:40:25.870Z,9.10
2018-09-26T07:42:55.230Z,9.20
2018-09-26T07:45:24.491Z,9.30
2018-09-26T07:47:54.720Z,9.40
2018-09-26T07:50:24.260Z,9.60
2018-09-26T07:52:54.630Z,9.70
2018-09-26T07:55:25.495Z,9.80
2018-09-26T07:57:56.123Z,9.90
2018-09-26T08:00:28.036Z,10.10
2018-09-26T08:02:58.858Z,10.30
2018-09-26T08:05:28.937Z,10.40
2018-09-26T08:08:08.993Z,10.50
2018-09-26T08:10:49.206Z,10.60
2018-09-26T08:13:18.462Z,10.70
2018-09-26T08:15:47.774Z,10.90
2018-09-26T08:18:17.081Z,11.10
2018-09-26T08:20:46.401Z,11.20
2018-09-26T08:23:26.573Z,11.40
2018-09-26T08:25:58.389Z,11.70
2018-09-26T08:28:28.570Z,11.90
2018-09-26T08:30:57.845Z,12.20
2018-09-26T08:33:28.369Z,12.40
2018-09-26T08:35:57.466Z,12.60
2018-09-26T08:38:32.931Z,13.00
2018-09-26T08:41:03.554Z,13.50
2018-09-26T08:43:34.421Z,14.00
2018-09-26T08:46:04.595Z,14.60
2018-09-26T08:48:34.566Z,15.30
2018-09-26T08:51:03.722Z,16.10
2018-09-26T08:53:32.891Z,16.80
2018-09-26T08:56:02.683Z,17.60
2018-09-26T08:58:35.315Z,18.30
2018-09-26T09:01:17.392Z,18.90
2018-09-26T09:03:46.611Z,19.30
2018-09-26T09:06:18.202Z,19.40
2018-09-26T09:08:47.361Z,19.70
2018-09-26T09:11:20.296Z,19.50
2018-09-26T09:13:50.213Z,19.50
2018-09-26T09:16:19.430Z,19.80
2018-09-26T09:18:49.328Z,19.90
2018-09-26T09:21:20.052Z,20.10
2018-09-26T09:23:49.505Z,20.40
2018-09-26T09:26:18.619Z,20.80
2018-09-26T09:28:48.810Z,21.00
2018-09-26T09:31:18.635Z,21.10
2018-09-26T09:33:47.778Z,21.00
2018-09-26T09:36:17.979Z,20.80
2018-09-26T09:38:47.254Z,20.90
2018-09-26T09:41:16.518Z,21.00
2018-09-26T09:43:46.454Z,21.00
2018-09-26T09:46:16.064Z,21.10
2018-09-26T09:48:45.201Z,21.20
2018-09-26T09:51:14.393Z,21.40
2018-09-26T09:53:45.370Z,21.60
2018-09-26T09:56:14.595Z,21.60
2018-09-26T09:58:43.733Z,21.30
2018-09-26T10:01:19.781Z,21.20
2018-09-26T10:03:48.953Z,21.20
2018-09-26T10:06:18.138Z,21.40
2018-09-26T10:08:48.381Z,21.50
2018-09-26T10:11:17.644Z,21.60
2018-09-26T10:13:47.136Z,21.70
2018-09-26T10:16:17.775Z,22.10
2018-09-26T10:18:46.965Z,22.00
2018-09-26T10:21:16.194Z,21.80
2018-09-26T10:23:45.747Z,22.00
2018-09-26T10:26:14.889Z,22.30
2018-09-26T10:28:45.741Z,22.70
2018-09-26T10:31:15.587Z,23.30
2018-09-26T10:33:46.013Z,23.40
2018-09-26T10:36:15.957Z,23.40
2018-09-26T10:38:45.133Z,23.40
2018-09-26T10:41:14.349Z,23.60
2018-09-26T10:43:44.534Z,23.90
2018-09-26T10:46:14.286Z,24.00
2018-09-26T10:48:44.598Z,23.90
2018-09-26T10:51:15.510Z,23.70
2018-09-26T10:53:44.823Z,23.80
2018-09-26T10:56:13.960Z,24.00
2018-09-26T10:58:45.789Z,24.20
2018-09-26T11:01:17.822Z,24.50
2018-09-26T11:03:47.606Z,24.90
2018-09-26T11:06:16.858Z,25.00
2018-09-26T11:08:47.042Z,25.10
2018-09-26T11:11:16.162Z,24.90
2018-09-26T11:13:45.306Z,24.70
2018-09-26T11:16:14.924Z,24.60
2018-09-26T11:18:44.053Z,24.50
2018-09-26T11:21:13.182Z,24.40
2018-09-26T11:23:42.339Z,24.20
2018-09-26T11:26:11.463Z,24.20
2018-09-26T11:28:41.425Z,24.50
2018-09-26T11:31:10.470Z,24.70
2018-09-26T11:33:39.772Z,25.10
2018-09-26T11:36:10.347Z,25.40
2018-09-26T11:38:39.554Z,25.10
2018-09-26T11:41:09.894Z,25.10
2018-09-26T11:43:39.662Z,24.90
2018-09-26T11:46:11.443Z,24.70
2018-09-26T11:48:41.544Z,25.00
2018-09-26T11:51:10.818Z,25.30
2018-09-26T11:53:40.291Z,25.40
2018-09-26T11:56:09.501Z,25.50
2018-09-26T11:58:39.771Z,25.60
2018-09-26T12:01:09.786Z,25.80
2018-09-26T12:03:41.074Z,26.10
2018-09-26T12:06:11.757Z,26.30
2018-09-26T12:08:40.875Z,26.30
2018-09-26T12:11:10.053Z,25.90
2018-09-26T12:13:39.294Z,26.00
2018-09-26T12:16:08.846Z,26.20
2018-09-26T12:18:38.454Z,26.30
2018-09-26T12:21:07.774Z,26.40
2018-09-26T12:23:36.883Z,26.60
2018-09-26T12:26:06.090Z,26.90
2018-09-26T12:28:35.208Z,26.90
2018-09-26T12:31:05.954Z,26.80
2018-09-26T12:33:35.114Z,26.70
2018-09-26T12:36:04.494Z,26.70
2018-09-26T12:38:33.972Z,26.40
2018-09-26T12:41:03.856Z,26.10
2018-09-26T12:43:33.213Z,25.90
2018-09-26T12:46:03.065Z,25.60
2018-09-26T12:48:32.244Z,25.40
2018-09-26T12:51:01.352Z,25.40
2018-09-26T12:53:31.556Z,25.40
2018-09-26T12:56:01.910Z,25.30
2018-09-26T12:58:31.009Z,25.10
2018-09-26T13:01:00.309Z,24.90
2018-09-26T13:03:29.450Z,24.70
2018-09-26T13:05:58.881Z,24.40
2018-09-26T13:08:28.060Z,24.30
2018-09-26T13:10:57.906Z,24.20
2018-09-26T13:13:27.938Z,24.00
2018-09-26T13:15:58.155Z,23.70
2018-09-26T13:18:30.108Z,23.40
2018-09-26T13:21:00.018Z,22.90
2018-09-26T13:23:29.330Z,22.70
2018-09-26T13:25:59.336Z,22.50
2018-09-26T13:28:31.784Z,22.30
2018-09-26T13:31:01.038Z,22.20
2018-09-26T13:33:30.284Z,22.20
2018-09-26T13:36:00.183Z,22.20
2018-09-26T13:38:30.351Z,22.30
2018-09-26T13:40:59.638Z,22.20
2018-09-26T13:43:28.945Z,22.00
2018-09-26T13:46:01.086Z,21.90
2018-09-26T13:48:33.055Z,21.90
2018-09-26T13:51:02.664Z,21.80
2018-09-26T13:53:32.219Z,21.90
2018-09-26T13:56:01.554Z,21.70
2018-09-26T13:58:30.936Z,21.60
2018-09-26T14:01:00.954Z,21.40
2018-09-26T14:03:30.274Z,21.30
2018-09-26T14:05:59.456Z,21.20
2018-09-26T14:08:30.211Z,21.00
2018-09-26T14:11:01.623Z,20.90
2018-09-26T14:13:31.591Z,20.80
2018-09-26T14:16:00.754Z,20.80
2018-09-26T14:18:31.282Z,20.60
2018-09-26T14:21:01.265Z,20.40
2018-09-26T14:23:32.363Z,20.20
2018-09-26T14:26:01.444Z,20.00
2018-09-26T14:28:33.187Z,19.90
2018-09-26T14:31:02.870Z,19.70
2018-09-26T14:33:32.139Z,19.60
2018-09-26T14:36:01.340Z,19.50
2018-09-26T14:38:31.846Z,19.30
2018-09-26T14:41:01.183Z,19.30
2018-09-26T14:43:30.923Z,19.00
2018-09-26T14:46:00.170Z,18.90
2018-09-26T14:48:29.452Z,18.70
2018-09-26T14:51:00.673Z,18.70
2018-09-26T14:53:30.003Z,18.60
2018-09-26T14:55:59.260Z,18.50
2018-09-26T14:58:28.584Z,18.50
2018-09-26T15:00:58.871Z,18.40
2018-09-26T15:03:28.105Z,18.30
2018-09-26T15:05:57.845Z,18.30
2018-09-26T15:08:27.205Z,18.10
2018-09-26T15:10:56.425Z,18.00
2018-09-26T15:13:25.598Z,17.90
2018-09-26T15:15:54.831Z,17.80
2018-09-26T15:18:24.058Z,17.80
2018-09-26T15:20:53.283Z,17.70
2018-09-26T15:23:22.580Z,17.60
2018-09-26T15:25:53.000Z,17.50
2018-09-26T15:28:22.149Z,17.40
2018-09-26T15:30:51.435Z,17.40
2018-09-26T15:33:20.659Z,17.30
2018-09-26T15:35:50.541Z,17.20
2018-09-26T15:38:21.431Z,17.20
2018-09-26T15:40:53.548Z,17.20
2018-09-26T15:43:24.927Z,17.10
2018-09-26T15:45:54.380Z,17.00
2018-09-26T15:48:23.675Z,16.90
2018-09-26T15:50:53.886Z,16.80
2018-09-26T15:53:24.786Z,16.80
2018-09-26T15:55:54.006Z,16.80
2018-09-26T15:58:23.199Z,16.70
2018-09-26T16:00:52.786Z,16.70
2018-09-26T16:03:21.963Z,16.60
2018-09-26T16:05:51.049Z,16.50
2018-09-26T16:08:20.314Z,16.50
2018-09-26T16:10:49.399Z,16.40
2018-09-26T16:13:19.255Z,16.30
2018-09-26T16:15:49.728Z,16.20
2018-09-26T16:18:19.920Z,16.20
2018-09-26T16:20:50.735Z,16.10
2018-09-26T16:23:26.785Z,16.10
2018-09-26T16:25:56.883Z,16.00
2018-09-26T16:28:27.255Z,16.00
2018-09-26T16:30:57.133Z,15.90
2018-09-26T16:33:29.840Z,15.90
2018-09-26T16:35:59.011Z,15.80
2018-09-26T16:38:28.322Z,15.70
2018-09-26T16:40:57.487Z,15.60
2018-09-26T16:43:26.662Z,15.60
2018-09-26T16:45:55.878Z,15.50
2018-09-26T16:48:24.980Z,15.50
2018-09-26T16:50:54.142Z,15.50
2018-09-26T16:53:23.370Z,15.40
2018-09-26T16:55:52.906Z,15.40
2018-09-26T16:58:22.420Z,15.30
2018-09-26T17:00:51.591Z,15.20
2018-09-26T17:03:21.130Z,15.10
2018-09-26T17:05:51.105Z,15.10
2018-09-26T17:08:20.293Z,15.00
2018-09-26T17:10:49.796Z,14.90
2018-09-26T17:13:18.973Z,14.90
2018-09-26T17:15:48.240Z,14.80
2018-09-26T17:18:17.514Z,14.80
2018-09-26T17:20:46.730Z,14.80
2018-09-26T17:23:15.911Z,14.70
2018-09-26T17:25:46.134Z,14.60
2018-09-26T17:28:16.077Z,14.60
2018-09-26T17:30:45.951Z,14.50
2018-09-26T17:33:22.243Z,14.50
2018-09-26T17:35:52.127Z,14.40
2018-09-26T17:38:21.230Z,14.40
2018-09-26T17:41:19.150Z,14.30
2018-09-26T17:43:48.277Z,14.30
2018-09-26T17:46:17.456Z,14.20
2018-09-26T17:48:53.658Z,14.20
2018-09-26T17:51:22.931Z,14.20
2018-09-26T17:53:52.768Z,14.10
2018-09-26T17:56:22.061Z,14.00
2018-09-26T17:58:51.339Z,14.10
2018-09-26T18:01:20.690Z,14.00
2018-09-26T18:03:50.396Z,14.00
2018-09-26T18:06:19.608Z,13.90
2018-09-26T18:08:49.340Z,13.90
2018-09-26T18:11:18.568Z,13.90
2018-09-26T18:13:48.492Z,13.90
2018-09-26T18:16:17.685Z,13.90
2018-09-26T18:18:46.919Z,13.90
2018-09-26T18:21:16.099Z,13.80
2018-09-26T18:23:45.151Z,13.80
2018-09-26T18:26:15.095Z,13.80
2018-09-26T18:28:58.319Z,13.80
2018-09-26T18:31:28.440Z,13.70
2018-09-26T18:34:05.691Z,13.70
2018-09-26T18:36:35.564Z,13.60
2018-09-26T18:39:30.484Z,13.60
2018-09-26T18:42:00.298Z,13.60
2018-09-26T18:44:30.120Z,13.50
2018-09-26T18:46:59.251Z,13.40
2018-09-26T18:49:28.398Z,13.40
2018-09-26T18:51:58.631Z,13.40
2018-09-26T18:54:38.610Z,13.30
2018-09-26T18:57:41.478Z,13.30
2018-09-26T19:00:11.838Z,13.30
2018-09-26T19:02:40.935Z,13.20
2018-09-26T19:05:14.002Z,13.20
2018-09-26T19:07:43.190Z,13.20
2018-09-26T19:10:12.418Z,13.20
2018-09-26T19:12:41.492Z,13.20
2018-09-26T19:15:10.757Z,13.10
2018-09-26T19:17:39.920Z,13.10
2018-09-26T19:20:09.161Z,13.00
2018-09-26T19:22:53.493Z,13.00
2018-09-26T19:25:22.582Z,12.90
2018-09-26T19:27:52.466Z,12.90
2018-09-26T19:30:22.320Z,12.80
2018-09-26T19:33:01.235Z,12.80
2018-09-26T19:35:51.966Z,12.60
2018-09-26T19:38:28.370Z,12.60
2018-09-26T19:40:57.532Z,12.50
2018-09-26T19:44:06.734Z,12.40
2018-09-26T19:46:43.310Z,12.40
2018-09-26T19:49:12.517Z,12.30
2018-09-26T19:51:41.699Z,12.20
2018-09-26T19:54:14.391Z,12.20
2018-09-26T19:56:43.688Z,12.20
2018-09-26T19:59:12.990Z,12.10
2018-09-26T20:02:20.589Z,12.10
2018-09-26T20:04:49.853Z,12.00
2018-09-26T20:07:18.911Z,12.00
2018-09-26T20:09:49.101Z,11.90
2018-09-26T20:12:41.665Z,11.90
2018-09-26T20:15:11.114Z,11.90
2018-09-26T20:17:40.398Z,11.80
2018-09-26T20:20:22.577Z,11.70
2018-09-26T20:23:26.091Z,11.70
2018-09-26T20:26:05.498Z,11.70
2018-09-26T20:28:42.341Z,11.70
2018-09-26T20:31:28.402Z,11.70
2018-09-26T20:34:28.154Z,11.70
2018-09-26T20:36:57.284Z,11.70
2018-09-26T20:39:26.463Z,11.60
2018-09-26T20:42:08.143Z,11.70
2018-09-26T20:44:37.338Z,11.60
2018-09-26T20:47:06.583Z,11.60
2018-09-26T20:52:27.660Z,11.70
2018-09-26T20:55:07.086Z,11.70
2018-09-26T20:58:10.491Z,11.70
2018-09-26T21:00:39.622Z,11.70
2018-09-26T21:03:08.710Z,11.70
2018-09-26T21:05:37.820Z,11.70
2018-09-26T21:08:14.231Z,11.70
2018-09-26T21:11:26.410Z,11.70
2018-09-26T21:17:26.333Z,11.60
2018-09-26T21:20:03.738Z,11.50
2018-09-26T21:22:40.946Z,11.50
2018-09-26T21:25:19.558Z,11.40
2018-09-26T21:27:48.711Z,11.50
2018-09-26T21:30:30.713Z,11.50
2018-09-26T21:33:00.519Z,11.50
2018-09-26T21:35:29.720Z,11.50
2018-09-26T21:37:58.904Z,11.50
2018-09-26T21:40:28.927Z,11.50
2018-09-26T21:46:19.135Z,11.40
2018-09-26T21:49:00.990Z,11.40
2018-09-26T21:51:30.206Z,11.40
2018-09-26T21:54:02.462Z,11.40
2018-09-26T21:56:59.310Z,11.40
2018-09-26T21:59:37.697Z,11.40
2018-09-26T22:02:36.846Z,11.30
2018-09-26T22:05:09.730Z,11.20
2018-09-26T22:07:46.805Z,11.20
2018-09-26T22:10:43.995Z,11.10
2018-09-26T22:13:16.625Z,11.10
2018-09-26T22:15:45.855Z,11.10
2018-09-26T22:18:30.566Z,11.00
2018-09-26T22:21:14.206Z,11.00
2018-09-26T22:27:43.463Z,11.00
2018-09-26T22:34:20.927Z,10.90
2018-09-26T22:36:50.855Z,10.90
2018-09-26T22:39:27.085Z,10.90
2018-09-26T22:41:56.241Z,10.90
2018-09-26T22:44:27.407Z,10.90
2018-09-26T22:46:56.478Z,10.90
2018-09-26T22:49:26.594Z,10.80
2018-09-26T22:51:55.665Z,10.70
2018-09-26T22:54:24.788Z,10.70
2018-09-26T22:57:07.139Z,10.70
2018-09-26T22:59:39.244Z,10.70
2018-09-26T23:02:08.411Z,10.60
2018-09-26T23:04:50.158Z,10.60
2018-09-26T23:07:20.020Z,10.70
2018-09-26T23:09:49.279Z,10.70
2018-09-26T23:12:25.922Z,10.70
2018-09-26T23:14:55.954Z,10.70
2018-09-26T23:17:32.489Z,10.60
2018-09-26T23:20:29.749Z,10.60
2018-09-26T23:23:01.983Z,10.60
2018-09-26T23:25:43.989Z,10.60
2018-09-26T23:28:20.653Z,10.50
2018-09-26T23:30:53.478Z,10.50
2018-09-26T23:36:02.705Z,10.40
2018-09-26T23:39:19.284Z,10.40
2018-09-26T23:41:48.610Z,10.30
2018-09-26T23:44:44.008Z,10.30
2018-09-26T23:47:13.186Z,10.20
2018-09-26T23:49:55.019Z,10.20
2018-09-26T23:52:24.311Z,10.20
2018-09-26T23:54:54.170Z,10.10
2018-09-26T23:57:24.355Z,10.10
2018-09-26T23:59:54.574Z,10.10
